createdAt,value
2023-03-16T00:04:29.624Z,1
2023-03-16T00:09:45.959Z,0
2023-03-16T00:15:02.308Z,1
2023-03-16T00:20:18.691Z,1
2023-03-16T00:25:35.289Z,1
2023-03-16T00:30:51.682Z,0
2023-03-16T00:36:08.214Z,1
2023-03-16T00:41:24.421Z,1
2023-03-16T00:46:40.819Z,1
2023-03-16T00:51:57.212Z,0
2023-03-16T00:57:13.542Z,0
2023-03-16T01:02:29.949Z,1
2023-03-16T01:07:46.314Z,0
2023-03-16T01:13:02.664Z,0
2023-03-16T01:18:19.177Z,0
2023-03-16T01:23:35.545Z,0
2023-03-16T01:28:51.914Z,2
2023-03-16T01:34:08.330Z,0
2023-03-16T01:39:24.686Z,1
2023-03-16T01:44:41.096Z,0
2023-03-16T01:49:57.461Z,0
2023-03-16T01:55:13.577Z,1
2023-03-16T02:00:30.394Z,0
2023-03-16T02:05:46.351Z,1
2023-03-16T02:11:03.052Z,1
2023-03-16T02:16:19.161Z,1
2023-03-16T02:21:35.542Z,1
2023-03-16T02:26:51.911Z,0
2023-03-16T02:32:08.327Z,5
2023-03-16T02:37:24.704Z,2
2023-03-16T02:42:41.078Z,1
2023-03-16T02:47:57.472Z,2
2023-03-16T02:53:13.848Z,1
2023-03-16T02:58:30.247Z,1
2023-03-16T03:03:46.663Z,1
2023-03-16T03:09:03.005Z,0
2023-03-16T03:14:19.438Z,1
2023-03-16T03:19:35.796Z,1
2023-03-16T03:24:52.199Z,3
2023-03-16T03:30:08.573Z,2
2023-03-16T03:35:25.053Z,1
2023-03-16T03:40:41.355Z,1
2023-03-16T03:45:57.884Z,1
2023-03-16T03:51:14.108Z,1
2023-03-16T03:56:30.513Z,0
2023-03-16T04:01:46.971Z,1
2023-03-16T04:07:03.263Z,1
2023-03-16T04:12:19.684Z,1
2023-03-16T04:17:36.034Z,1
2023-03-16T04:22:52.450Z,1
2023-03-16T04:28:08.852Z,1
2023-03-16T04:33:25.208Z,0
2023-03-16T04:38:41.610Z,1
2023-03-16T04:43:58.008Z,3
2023-03-16T04:49:14.350Z,3
2023-03-16T04:54:31.029Z,1
2023-03-16T04:59:47.380Z,2
2023-03-16T05:05:03.799Z,16
2023-03-16T05:10:20.241Z,25
2023-03-16T05:15:36.694Z,11
2023-03-16T05:20:53.131Z,18
2023-03-16T05:26:09.539Z,16
2023-03-16T05:31:25.955Z,19
2023-03-16T05:36:42.366Z,12
2023-03-16T05:41:58.763Z,12
2023-03-16T05:47:15.164Z,12
2023-03-16T05:52:31.606Z,10
2023-03-16T05:57:47.994Z,12
2023-03-16T06:03:04.484Z,11
2023-03-16T06:08:20.837Z,16
2023-03-16T06:13:37.222Z,12
2023-03-16T06:18:53.661Z,16
2023-03-16T06:24:10.082Z,11
2023-03-16T06:29:26.202Z,22
2023-03-16T06:34:42.669Z,12
2023-03-16T06:39:59.038Z,14
2023-03-16T06:45:15.491Z,27
2023-03-16T06:50:31.935Z,15
2023-03-16T06:55:48.300Z,21
2023-03-16T07:01:04.843Z,22
2023-03-16T07:06:20.925Z,44
2023-03-16T07:11:37.118Z,26
2023-03-16T07:16:53.643Z,45
2023-03-16T07:22:09.956Z,18
2023-03-16T07:27:26.305Z,12
2023-03-16T07:32:42.801Z,17
2023-03-16T07:37:59.143Z,16
2023-03-16T07:43:15.683Z,2
2023-03-16T07:48:31.860Z,2
2023-03-16T07:53:48.226Z,2
2023-03-16T07:59:04.588Z,3
2023-03-16T08:04:21.056Z,2
2023-03-16T08:09:37.333Z,2
2023-03-16T08:14:53.719Z,2
2023-03-16T08:20:10.121Z,1
2023-03-16T08:25:26.424Z,2
2023-03-16T08:30:42.787Z,5
2023-03-16T08:35:59.162Z,2
2023-03-16T08:41:15.460Z,2
2023-03-16T08:46:31.891Z,1
2023-03-16T08:51:48.119Z,2
2023-03-16T08:57:18.681Z,3
2023-03-16T09:02:35.045Z,0
2023-03-16T09:07:51.336Z,0
2023-03-16T09:13:07.705Z,6
2023-03-16T09:18:24.037Z,0
2023-03-16T09:23:40.354Z,1
2023-03-16T09:28:56.696Z,0
2023-03-16T09:34:13.004Z,4
2023-03-16T09:39:29.359Z,2
2023-03-16T09:44:45.708Z,3
2023-03-16T09:50:01.994Z,0
2023-03-16T09:55:18.337Z,0
2023-03-16T10:00:34.673Z,2
2023-03-16T10:05:50.955Z,0
2023-03-16T10:11:07.315Z,0
2023-03-16T10:16:23.622Z,3
2023-03-16T10:21:39.924Z,0
2023-03-16T10:26:56.233Z,0
2023-03-16T10:32:12.506Z,0
2023-03-16T10:37:28.802Z,0
2023-03-16T10:42:45.143Z,1
2023-03-16T10:48:01.409Z,0
2023-03-16T10:53:17.776Z,0
2023-03-16T10:58:34.014Z,0
2023-03-16T11:03:50.314Z,0
2023-03-16T11:09:06.598Z,1
2023-03-16T11:14:22.870Z,0
2023-03-16T11:19:39.160Z,1
2023-03-16T11:24:55.476Z,0
2023-03-16T11:30:11.704Z,3
2023-03-16T11:35:28.345Z,1
2023-03-16T11:40:44.286Z,0
2023-03-16T11:46:00.586Z,1
2023-03-16T11:51:16.892Z,1
2023-03-16T11:56:33.142Z,1
2023-03-16T12:01:59.833Z,1
2023-03-16T12:07:05.732Z,0
2023-03-16T12:12:22.006Z,0
2023-03-16T12:17:38.313Z,0
2023-03-16T12:22:54.638Z,0
2023-03-16T12:28:10.901Z,1
2023-03-16T12:33:27.241Z,1
2023-03-16T12:38:43.504Z,2
2023-03-16T12:43:59.940Z,2
2023-03-16T12:49:16.154Z,1
2023-03-16T12:54:32.440Z,1
2023-03-16T12:59:48.788Z,1
2023-03-16T13:05:05.109Z,2
2023-03-16T13:10:21.370Z,2
2023-03-16T13:15:37.693Z,2
2023-03-16T13:20:53.954Z,2
2023-03-16T13:26:10.254Z,2
2023-03-16T13:31:26.630Z,3
2023-03-16T13:36:42.855Z,2
2023-03-16T13:41:59.207Z,3
2023-03-16T13:47:15.800Z,2
2023-03-16T13:52:32.166Z,3
2023-03-16T13:57:48.154Z,2
2023-03-16T14:03:04.602Z,2
2023-03-16T14:08:20.823Z,4
2023-03-16T14:13:37.207Z,3
2023-03-16T14:18:53.505Z,3
2023-03-16T14:24:09.861Z,4
2023-03-16T14:29:26.219Z,4
2023-03-16T14:34:42.560Z,3
2023-03-16T14:39:58.919Z,4
2023-03-16T14:45:15.286Z,4
2023-03-16T14:50:31.615Z,8
2023-03-16T14:55:47.988Z,5
2023-03-16T15:01:04.322Z,4
2023-03-16T15:06:20.786Z,4
2023-03-16T15:11:37.043Z,5
2023-03-16T15:16:53.357Z,6
2023-03-16T15:22:09.730Z,4
2023-03-16T15:27:26.067Z,5
2023-03-16T15:32:42.450Z,5
2023-03-16T15:37:58.830Z,6
2023-03-16T15:43:15.210Z,7
2023-03-16T15:48:31.529Z,7
2023-03-16T15:53:47.934Z,6
2023-03-16T15:59:04.266Z,6
2023-03-16T16:04:20.703Z,6
2023-03-16T16:09:36.993Z,6
2023-03-16T16:14:53.335Z,6
2023-03-16T16:20:09.710Z,6
2023-03-16T16:25:26.087Z,6
2023-03-16T16:30:42.433Z,4
2023-03-16T16:35:58.840Z,3
2023-03-16T16:41:15.152Z,4
2023-03-16T16:46:31.520Z,3
2023-03-16T16:51:47.931Z,4
2023-03-16T16:57:04.265Z,5
2023-03-16T17:02:20.670Z,6
2023-03-16T17:07:37.046Z,6
2023-03-16T17:12:53.414Z,4
2023-03-16T17:18:10.430Z,5
2023-03-16T17:23:26.779Z,10
2023-03-16T17:28:43.358Z,13
2023-03-16T17:33:59.773Z,18
2023-03-16T17:39:16.129Z,22
2023-03-16T17:44:32.544Z,26
2023-03-16T17:49:49.227Z,14
2023-03-16T17:55:05.405Z,15
2023-03-16T18:00:21.821Z,21
2023-03-16T18:05:38.216Z,20
2023-03-16T18:10:54.603Z,27
2023-03-16T18:16:11.101Z,44
2023-03-16T18:21:27.212Z,41
2023-03-16T18:26:43.838Z,36
2023-03-16T18:32:00.286Z,33
2023-03-16T18:37:16.428Z,41
2023-03-16T18:42:33.484Z,40
2023-03-16T18:47:50.083Z,43
2023-03-16T18:53:06.531Z,44
2023-03-16T18:58:22.983Z,37
2023-03-16T19:03:39.399Z,44
2023-03-16T19:08:55.857Z,45
2023-03-16T19:14:12.883Z,41
2023-03-16T19:19:29.267Z,32
2023-03-16T19:24:45.712Z,34
2023-03-16T19:30:02.136Z,33
2023-03-16T19:35:18.514Z,29
2023-03-16T19:40:35.524Z,36
2023-03-16T19:45:51.956Z,38
2023-03-16T19:51:08.767Z,62
2023-03-16T19:56:26.922Z,66
2023-03-16T20:01:42.063Z,53
2023-03-16T20:06:58.721Z,52
2023-03-16T20:12:15.253Z,50
2023-03-16T20:17:31.622Z,41
2023-03-16T20:22:48.675Z,43
2023-03-16T20:28:05.076Z,46
2023-03-16T20:33:22.759Z,38
2023-03-16T20:38:37.972Z,39
2023-03-16T20:43:54.213Z,42
2023-03-16T20:49:10.698Z,45
2023-03-16T20:54:27.193Z,40
2023-03-16T20:59:43.561Z,37
2023-03-16T21:05:00.233Z,37
2023-03-16T21:10:16.452Z,33
2023-03-16T21:15:32.839Z,22
2023-03-16T21:20:50.186Z,66
2023-03-16T21:26:06.579Z,45
2023-03-16T21:31:23.709Z,48
2023-03-16T21:36:40.065Z,41
2023-03-16T21:41:56.883Z,50
2023-03-16T21:47:13.325Z,38
2023-03-16T21:52:29.742Z,28
2023-03-16T21:57:46.133Z,22
2023-03-16T22:03:02.765Z,25
2023-03-16T22:08:18.984Z,28
2023-03-16T22:13:35.461Z,44
2023-03-16T22:18:51.877Z,49
2023-03-16T22:24:08.962Z,53
2023-03-16T22:29:25.528Z,46
2023-03-16T22:34:41.813Z,34
2023-03-16T22:39:58.235Z,31
2023-03-16T22:45:14.661Z,36
2023-03-16T22:50:30.849Z,41
2023-03-16T22:55:47.621Z,49
2023-03-16T23:01:04.138Z,60
2023-03-16T23:06:20.597Z,33
2023-03-16T23:11:37.079Z,32
2023-03-16T23:16:53.551Z,22
2023-03-16T23:22:09.929Z,24
2023-03-16T23:27:26.343Z,25
2023-03-16T23:32:42.834Z,27
2023-03-16T23:37:59.242Z,24
2023-03-16T23:43:15.640Z,27
2023-03-16T23:48:32.061Z,30
2023-03-16T23:53:48.511Z,20
2023-03-16T23:59:04.887Z,19
